Time;durP1;ratioP1;P1;durP2;ratioP2;P2;SDS_P1;SDS_P2;PMS_P1;PMS_P2;Temp;Humidity;BMP_temperature;BMP_pressure;BME280_temperature;BME280_humidity;BME280_pressure;Samples;Min_cycle;Max_cycle;Signal;HPM_P1;HPM_P2
2021/08/11 00:00:36;;;;;;;2.85;1.50;;;21.00;65.00;;;;;;5033209;28;20500;-66
2021/08/11 00:03:02;;;;;;;3.53;1.60;;;21.00;64.90;;;;;;5034460;28;20040;-66
2021/08/11 00:05:27;;;;;;;3.28;1.48;;;21.00;64.90;;;;;;5034252;28;20033;-66
2021/08/11 00:07:53;;;;;;;3.38;1.60;;;21.00;64.90;;;;;;5035184;28;20369;-66
2021/08/11 00:10:18;;;;;;;3.28;1.60;;;21.00;65.00;;;;;;5034574;28;20337;-66
2021/08/11 00:12:44;;;;;;;3.67;1.75;;;20.90;64.90;;;;;;5034219;28;20029;-66
2021/08/11 00:15:10;;;;;;;3.58;1.77;;;20.90;64.90;;;;;;5034133;28;20107;-66
2021/08/11 00:17:36;;;;;;;4.63;1.90;;;21.00;65.00;;;;;;5034198;28;20056;-66
2021/08/11 00:20:02;;;;;;;4.88;2.10;;;20.90;65.00;;;;;;5034459;28;20029;-66
2021/08/11 00:22:28;;;;;;;3.60;1.83;;;20.90;65.00;;;;;;5033918;28;20528;-66
2021/08/11 00:24:54;;;;;;;3.22;1.40;;;20.90;65.00;;;;;;5033872;28;20041;-66
2021/08/11 00:27:19;;;;;;;4.28;1.95;;;20.90;65.10;;;;;;5034031;28;20029;-67
2021/08/11 00:29:45;;;;;;;3.83;1.45;;;20.90;65.00;;;;;;5033850;28;20037;-66
2021/08/11 00:32:10;;;;;;;3.28;1.70;;;20.90;65.00;;;;;;5033756;28;20163;-66
2021/08/11 00:34:36;;;;;;;4.57;1.70;;;20.90;65.00;;;;;;5033745;28;20115;-66
2021/08/11 00:37:01;;;;;;;3.63;1.60;;;20.90;65.00;;;;;;5033887;28;20296;-66
2021/08/11 00:39:27;;;;;;;4.00;1.67;;;20.90;65.00;;;;;;5033927;28;20389;-66
2021/08/11 00:41:52;;;;;;;3.78;1.77;;;20.80;65.00;;;;;;5039484;28;20036;-67
2021/08/11 00:44:18;;;;;;;5.07;1.70;;;20.90;65.00;;;;;;5034701;28;20444;-67
2021/08/11 00:46:45;;;;;;;5.13;2.20;;;20.80;65.10;;;;;;5033649;28;20036;-66
2021/08/11 00:49:14;;;;;;;4.25;1.85;;;20.80;65.00;;;;;;5033525;28;20409;-66
2021/08/11 00:51:41;;;;;;;3.78;1.83;;;20.80;65.10;;;;;;5033684;28;20052;-66
2021/08/11 00:54:08;;;;;;;4.43;1.85;;;20.80;65.10;;;;;;5033836;28;20026;-66
2021/08/11 00:56:36;;;;;;;3.60;1.70;;;20.80;65.10;;;;;;5033707;28;20029;-66
2021/08/11 00:59:06;;;;;;;4.43;1.90;;;20.80;65.10;;;;;;5033402;28;20084;-66
2021/08/11 01:01:33;;;;;;;3.45;1.67;;;20.80;65.10;;;;;;5033303;28;20124;-67
2021/08/11 01:04:02;;;;;;;4.68;1.92;;;20.80;65.10;;;;;;5033202;28;20053;-67
2021/08/11 01:06:29;;;;;;;3.45;1.73;;;20.80;65.10;;;;;;5033200;28;20033;-67
2021/08/11 01:08:55;;;;;;;3.97;1.70;;;20.80;65.10;;;;;;5032994;28;20036;-66
2021/08/11 01:11:22;;;;;;;4.40;1.92;;;20.80;65.10;;;;;;5033203;28;20021;-66
2021/08/11 01:13:48;;;;;;;4.45;2.08;;;20.80;65.10;;;;;;5033193;28;20725;-66
2021/08/11 01:16:13;;;;;;;4.55;1.75;;;20.70;65.10;;;;;;5033108;28;20112;-66
2021/08/11 01:18:39;;;;;;;5.28;2.05;;;20.80;65.10;;;;;;5033023;28;20025;-67
2021/08/11 01:21:28;;;;;;;3.95;1.70;;;20.70;65.10;;;;;;5048349;28;20060;-66
2021/08/11 01:24:18;;;;;;;3.80;1.85;;;20.70;65.10;;;;;;5031865;28;20048;-66
2021/08/11 01:27:03;;;;;;;4.35;1.63;;;20.80;65.10;;;;;;5032927;28;20481;-67
2021/08/11 01:29:57;;;;;;;4.05;1.73;;;20.70;65.20;;;;;;5032887;28;20029;-66
2021/08/11 01:32:53;;;;;;;4.85;2.13;;;20.70;65.10;;;;;;5032789;28;20100;-66
2021/08/11 01:35:22;;;;;;;4.35;2.35;;;20.70;65.10;;;;;;5032581;28;20051;-66
2021/08/11 01:37:53;;;;;;;4.22;2.20;;;20.70;65.20;;;;;;5032865;28;20034;-66
2021/08/11 01:40:24;;;;;;;3.85;1.70;;;20.70;65.10;;;;;;5032871;28;20052;-66
2021/08/11 01:42:53;;;;;;;3.53;1.55;;;20.70;65.10;;;;;;5032839;28;20384;-67
2021/08/11 01:45:26;;;;;;;4.47;1.90;;;20.70;65.20;;;;;;5032653;28;20044;-66
2021/08/11 01:47:56;;;;;;;4.03;1.60;;;20.70;65.10;;;;;;5032775;28;20084;-67
2021/08/11 01:50:22;;;;;;;4.57;1.92;;;20.70;65.10;;;;;;5032649;28;20029;-66
2021/08/11 01:52:50;;;;;;;5.00;2.45;;;20.70;65.10;;;;;;5032903;28;20026;-66
2021/08/11 01:55:15;;;;;;;4.68;2.08;;;20.70;65.10;;;;;;5032768;28;20517;-67
2021/08/11 01:57:54;;;;;;;4.68;2.17;;;20.70;65.20;;;;;;5032770;28;20022;-67
2021/08/11 02:00:23;;;;;;;4.28;1.80;;;20.70;65.10;;;;;;5032684;28;20026;-67
2021/08/11 02:02:51;;;;;;;4.57;1.70;;;20.70;65.10;;;;;;5032709;28;20018;-66
2021/08/11 02:05:18;;;;;;;4.70;1.98;;;20.70;65.20;;;;;;5032582;28;20067;-66
2021/08/11 02:07:44;;;;;;;4.35;1.80;;;20.70;65.10;;;;;;5032900;28;20029;-67
2021/08/11 02:10:13;;;;;;;5.25;2.05;;;20.60;65.10;;;;;;5032639;28;20369;-66
2021/08/11 02:12:38;;;;;;;4.50;2.10;;;20.70;65.10;;;;;;5032512;28;20029;-66
2021/08/11 02:15:06;;;;;;;5.45;2.20;;;20.60;65.20;;;;;;5032573;28;20048;-66
2021/08/11 02:17:32;;;;;;;5.55;2.42;;;20.60;65.20;;;;;;5032449;28;20037;-67
2021/08/11 02:19:58;;;;;;;4.35;2.10;;;20.60;65.20;;;;;;5034043;28;20491;-67
2021/08/11 02:22:23;;;;;;;3.83;1.90;;;20.60;65.10;;;;;;5036665;28;20026;-67
2021/08/11 02:24:49;;;;;;;4.40;1.90;;;20.60;65.10;;;;;;5049968;28;20021;-68
2021/08/11 02:27:18;;;;;;;5.30;2.30;;;20.60;65.10;;;;;;5050963;28;20061;-68
2021/08/11 02:30:07;;;;;;;4.82;2.28;;;20.60;65.10;;;;;;5047566;28;20536;-70
2021/08/11 02:32:56;;;;;;;4.18;2.00;;;20.60;65.10;;;;;;5047919;28;20021;-71
2021/08/11 02:35:55;;;;;;;4.18;1.85;;;20.60;65.10;;;;;;5045788;28;20053;-67
2021/08/11 02:38:27;;;;;;;5.00;2.40;;;20.60;65.10;;;;;;5035275;28;20117;-67
2021/08/11 02:40:57;;;;;;;5.78;2.20;;;20.60;65.10;;;;;;5047469;28;20079;-66
2021/08/11 02:43:35;;;;;;;4.65;2.20;;;20.70;65.10;;;;;;5046971;28;20064;-67
2021/08/11 02:46:10;;;;;;;4.43;1.92;;;20.60;65.10;;;;;;5038692;28;20033;-67
2021/08/11 02:48:36;;;;;;;5.05;2.42;;;20.60;65.10;;;;;;5038595;28;20485;-66
2021/08/11 02:51:04;;;;;;;3.80;2.08;;;20.60;65.00;;;;;;5036005;28;20045;-67
2021/08/11 02:53:32;;;;;;;4.57;2.03;;;20.60;65.10;;;;;;5035756;28;20060;-66
2021/08/11 02:55:57;;;;;;;4.75;2.33;;;20.60;65.00;;;;;;5035825;28;20028;-67
2021/08/11 02:58:23;;;;;;;4.95;2.38;;;20.60;65.10;;;;;;5035640;28;20025;-66
2021/08/11 03:00:50;;;;;;;5.15;2.35;;;20.60;65.00;;;;;;5035728;28;20033;-66
2021/08/11 03:03:16;;;;;;;4.20;2.13;;;20.60;65.00;;;;;;5035646;28;20071;-66
2021/08/11 03:05:42;;;;;;;3.60;1.77;;;20.60;65.00;;;;;;5035546;28;20042;-67
2021/08/11 03:08:08;;;;;;;5.38;2.25;;;20.60;65.00;;;;;;5040767;28;20029;-67
2021/08/11 03:10:37;;;;;;;4.43;2.13;;;20.60;65.00;;;;;;5035645;28;20032;-67
2021/08/11 03:13:03;;;;;;;4.80;2.42;;;20.60;64.90;;;;;;5035520;28;20021;-67
2021/08/11 03:15:31;;;;;;;5.10;2.08;;;20.60;64.90;;;;;;5035444;28;20040;-67
2021/08/11 03:17:57;;;;;;;5.78;2.20;;;20.60;64.90;;;;;;5035643;28;20022;-67
2021/08/11 03:20:22;;;;;;;4.03;1.95;;;20.60;64.90;;;;;;5035627;28;20164;-67
2021/08/11 03:22:48;;;;;;;5.07;2.10;;;20.60;64.90;;;;;;5035508;28;20057;-66
2021/08/11 03:25:14;;;;;;;5.88;2.28;;;20.60;64.90;;;;;;5035329;28;20052;-66
2021/08/11 03:27:39;;;;;;;3.13;1.60;;;20.60;64.90;;;;;;5035130;28;20440;-66
2021/08/11 03:30:05;;;;;;;4.70;2.38;;;20.60;64.90;;;;;;5034771;28;20025;-67
2021/08/11 03:32:31;;;;;;;4.75;2.22;;;20.60;64.90;;;;;;5035243;28;20022;-66
2021/08/11 03:34:56;;;;;;;4.47;1.88;;;20.60;64.90;;;;;;5034777;28;20129;-67
2021/08/11 03:37:22;;;;;;;3.85;1.85;;;20.60;64.80;;;;;;5034946;28;20037;-67
2021/08/11 03:39:48;;;;;;;5.00;2.22;;;20.60;64.90;;;;;;5034963;28;20108;-66
2021/08/11 03:42:13;;;;;;;5.85;2.28;;;20.60;64.80;;;;;;5034844;28;20040;-66
2021/08/11 03:44:39;;;;;;;4.90;2.15;;;20.60;64.70;;;;;;5034765;28;20381;-66
2021/08/11 03:47:05;;;;;;;5.90;2.08;;;20.60;64.80;;;;;;5034909;28;20045;-67
2021/08/11 03:49:31;;;;;;;4.43;2.10;;;20.60;64.80;;;;;;5034783;28;20108;-66
2021/08/11 03:51:56;;;;;;;5.55;2.40;;;20.60;64.80;;;;;;5034690;28;20436;-67
2021/08/11 03:54:22;;;;;;;4.75;2.15;;;20.60;64.70;;;;;;5034685;28;20083;-66
2021/08/11 03:56:47;;;;;;;4.85;2.40;;;20.60;64.80;;;;;;5034597;28;20112;-66
2021/08/11 03:59:13;;;;;;;4.53;2.08;;;20.60;64.80;;;;;;5034683;28;20108;-67
2021/08/11 04:01:38;;;;;;;6.18;2.63;;;20.60;64.70;;;;;;5034492;28;20029;-66
2021/08/11 04:04:04;;;;;;;3.83;2.10;;;20.60;64.70;;;;;;5039773;28;20040;-66
2021/08/11 04:06:29;;;;;;;4.57;2.20;;;20.60;64.70;;;;;;5035623;28;20044;-66
2021/08/11 04:08:55;;;;;;;5.25;2.17;;;20.60;64.80;;;;;;5034368;28;20021;-66
2021/08/11 04:11:20;;;;;;;5.35;2.65;;;20.60;64.70;;;;;;5034249;28;20031;-66
2021/08/11 04:13:46;;;;;;;4.78;2.05;;;20.60;64.70;;;;;;5034361;28;20108;-67
2021/08/11 04:16:12;;;;;;;5.43;2.65;;;20.60;64.70;;;;;;5034237;28;20056;-66
2021/08/11 04:18:38;;;;;;;4.75;2.25;;;20.60;64.80;;;;;;5034208;28;20033;-66
2021/08/11 04:21:03;;;;;;;5.95;2.47;;;20.60;64.80;;;;;;5034416;28;20040;-66
2021/08/11 04:23:29;;;;;;;5.95;2.50;;;20.60;64.80;;;;;;5034137;28;20109;-67
2021/08/11 04:25:55;;;;;;;5.85;2.85;;;20.60;64.80;;;;;;5034178;28;20083;-67
2021/08/11 04:28:20;;;;;;;4.70;2.40;;;20.60;64.70;;;;;;5034238;28;20032;-67
2021/08/11 04:30:46;;;;;;;4.20;2.03;;;20.60;64.70;;;;;;5033886;28;20048;-66
2021/08/11 04:33:12;;;;;;;4.53;2.35;;;20.60;64.70;;;;;;5033807;28;20021;-66
2021/08/11 04:35:38;;;;;;;5.43;2.38;;;20.60;64.70;;;;;;5033768;28;20124;-66
2021/08/11 04:38:04;;;;;;;5.65;2.72;;;20.60;64.70;;;;;;5033850;28;20381;-67
2021/08/11 04:40:29;;;;;;;5.60;2.65;;;20.60;64.70;;;;;;5033720;28;20018;-67
2021/08/11 04:42:55;;;;;;;5.50;2.28;;;20.60;64.70;;;;;;5032992;28;20029;-67
2021/08/11 04:45:21;;;;;;;4.78;2.30;;;20.60;64.70;;;;;;5033535;28;20133;-66
2021/08/11 04:47:48;;;;;;;5.47;2.50;;;20.60;64.70;;;;;;5033592;28;20022;-66
2021/08/11 04:50:14;;;;;;;6.20;2.72;;;20.60;64.70;;;;;;5033503;28;20021;-66
2021/08/11 04:52:40;;;;;;;4.53;2.38;;;20.60;64.70;;;;;;5033583;28;20067;-66
2021/08/11 04:55:06;;;;;;;6.15;2.85;;;20.60;64.70;;;;;;5033517;28;20456;-66
2021/08/11 04:57:32;;;;;;;6.43;2.63;;;20.60;64.70;;;;;;5033475;28;20052;-66
2021/08/11 04:59:57;;;;;;;5.25;2.55;;;20.60;64.70;;;;;;5033409;28;20064;-66
2021/08/11 05:02:22;;;;;;;4.63;2.25;;;20.70;64.60;;;;;;5033554;28;20029;-66
2021/08/11 05:04:48;;;;;;;5.63;2.42;;;20.70;64.60;;;;;;5048570;28;20026;-66
2021/08/11 05:07:13;;;;;;;4.88;2.28;;;20.60;64.50;;;;;;5033281;28;20188;-66
2021/08/11 05:09:39;;;;;;;5.57;2.67;;;20.70;64.50;;;;;;5033216;28;20025;-67
2021/08/11 05:12:05;;;;;;;4.88;2.45;;;20.60;64.50;;;;;;5033375;28;20479;-66
2021/08/11 05:14:32;;;;;;;5.13;2.40;;;20.70;64.60;;;;;;5033367;28;20029;-66
2021/08/11 05:16:58;;;;;;;6.13;3.10;;;20.70;64.60;;;;;;5032968;28;20025;-67
2021/08/11 05:19:23;;;;;;;5.43;2.70;;;20.70;64.50;;;;;;5033089;28;20377;-68
2021/08/11 05:21:49;;;;;;;6.35;3.20;;;20.70;64.50;;;;;;5033035;28;20423;-66
2021/08/11 05:24:15;;;;;;;6.72;2.85;;;20.70;64.60;;;;;;5033230;28;20120;-67
2021/08/11 05:26:41;;;;;;;7.25;3.13;;;20.70;64.50;;;;;;5033052;28;20096;-66
2021/08/11 05:29:07;;;;;;;5.97;2.50;;;20.70;64.50;;;;;;5033053;28;20034;-66
2021/08/11 05:31:33;;;;;;;6.07;2.80;;;20.70;64.50;;;;;;5032997;28;20029;-66
2021/08/11 05:33:58;;;;;;;8.88;2.80;;;20.70;64.50;;;;;;5048355;28;20018;-66
2021/08/11 05:36:24;;;;;;;5.70;2.80;;;20.60;64.50;;;;;;5031507;28;20049;-67
2021/08/11 05:38:49;;;;;;;5.47;2.80;;;20.70;64.50;;;;;;5033088;28;20022;-67
2021/08/11 05:41:15;;;;;;;5.95;2.83;;;20.70;64.40;;;;;;5032848;28;20030;-67
2021/08/11 05:43:40;;;;;;;5.43;2.63;;;20.70;64.40;;;;;;5032795;28;20409;-67
2021/08/11 05:46:06;;;;;;;6.50;3.10;;;20.70;64.40;;;;;;5032648;28;20041;-67
2021/08/11 05:48:32;;;;;;;5.88;2.95;;;20.70;64.40;;;;;;5032747;28;20044;-69
2021/08/11 05:50:58;;;;;;;6.55;2.97;;;20.70;64.40;;;;;;5034747;28;20034;-69
2021/08/11 05:53:23;;;;;;;5.72;2.72;;;20.70;64.40;;;;;;5044338;28;20036;-68
2021/08/11 05:55:49;;;;;;;5.75;2.85;;;20.70;64.50;;;;;;5055546;28;20021;-68
2021/08/11 05:58:15;;;;;;;6.43;3.40;;;20.70;64.40;;;;;;5048911;28;20108;-68
2021/08/11 06:00:41;;;;;;;6.13;3.08;;;20.80;64.40;;;;;;5055857;28;20537;-69
2021/08/11 06:03:06;;;;;;;7.88;3.42;;;20.70;64.80;;;;;;5055830;28;20025;-69
2021/08/11 06:05:32;;;;;;;8.07;3.00;;;20.70;64.60;;;;;;5055639;28;20060;-68
2021/08/11 06:07:58;;;;;;;5.72;3.13;;;20.70;64.80;;;;;;5055430;28;20033;-68
2021/08/11 06:10:23;;;;;;;6.07;3.13;;;20.70;64.70;;;;;;5044860;28;20033;-68
2021/08/11 06:12:52;;;;;;;7.32;3.25;;;20.80;64.60;;;;;;5035862;28;20022;-68
2021/08/11 06:15:18;;;;;;;6.38;3.63;;;20.80;64.60;;;;;;5035480;28;20036;-68
2021/08/11 06:17:45;;;;;;;6.88;3.50;;;20.80;64.60;;;;;;5035465;28;20021;-69
2021/08/11 06:20:11;;;;;;;6.85;3.65;;;20.80;64.50;;;;;;5035587;28;20026;-68
2021/08/11 06:22:36;;;;;;;6.53;3.17;;;20.80;64.60;;;;;;5044756;28;20033;-68
2021/08/11 06:25:03;;;;;;;7.43;3.65;;;20.80;64.50;;;;;;5055387;28;20032;-69
2021/08/11 06:27:28;;;;;;;6.13;3.08;;;20.80;64.50;;;;;;5056670;28;20028;-68
2021/08/11 06:29:54;;;;;;;6.82;3.63;;;20.90;64.50;;;;;;5047914;28;20025;-68
2021/08/11 06:32:19;;;;;;;8.73;3.15;;;20.80;64.60;;;;;;5045605;28;20401;-68
2021/08/11 06:34:45;;;;;;;6.38;3.35;;;20.80;64.50;;;;;;5054546;28;20178;-68
2021/08/11 06:37:10;;;;;;;6.13;3.05;;;20.90;64.70;;;;;;5045215;28;20025;-67
2021/08/11 06:39:36;;;;;;;5.45;2.95;;;20.90;64.70;;;;;;5046499;28;20372;-68
2021/08/11 06:42:01;;;;;;;8.32;3.33;;;20.90;64.60;;;;;;5054055;28;20036;-68
2021/08/11 06:44:27;;;;;;;7.00;3.47;;;20.80;64.50;;;;;;5054503;28;20106;-68
2021/08/11 06:46:53;;;;;;;7.72;3.70;;;20.90;64.70;;;;;;5051963;28;20380;-68
2021/08/11 06:49:18;;;;;;;6.78;3.40;;;20.90;64.50;;;;;;5045764;28;20404;-68
2021/08/11 06:51:44;;;;;;;6.97;3.38;;;20.90;64.60;;;;;;5054091;28;20029;-68
2021/08/11 06:54:11;;;;;;;6.80;3.28;;;20.90;64.50;;;;;;5037380;28;20025;-68
2021/08/11 06:56:37;;;;;;;6.35;3.28;;;20.90;64.50;;;;;;5043026;28;20102;-67
2021/08/11 06:59:04;;;;;;;6.20;3.13;;;20.90;64.60;;;;;;5054142;28;20480;-68
2021/08/11 07:01:29;;;;;;;6.68;3.53;;;20.90;64.60;;;;;;5049477;28;20026;-68
2021/08/11 07:03:55;;;;;;;7.00;3.42;;;20.90;64.60;;;;;;5049862;28;20029;-68
2021/08/11 07:06:20;;;;;;;7.13;3.38;;;20.90;64.60;;;;;;5046862;28;20043;-65
2021/08/11 07:08:46;;;;;;;8.32;3.70;;;20.90;64.60;;;;;;5034603;28;20022;-69
2021/08/11 07:11:12;;;;;;;7.78;3.85;;;20.90;64.70;;;;;;5050749;28;20025;-69
2021/08/11 07:13:37;;;;;;;7.22;3.30;;;20.90;64.60;;;;;;5049498;28;20034;-69
2021/08/11 07:16:03;;;;;;;6.78;3.90;;;20.90;64.60;;;;;;5049447;28;20067;-69
2021/08/11 07:18:28;;;;;;;6.10;3.20;;;21.00;64.60;;;;;;5054125;28;20033;-69
2021/08/11 07:20:54;;;;;;;6.82;3.45;;;21.00;64.60;;;;;;5048618;28;20074;-70
2021/08/11 07:23:20;;;;;;;6.90;3.47;;;21.00;64.50;;;;;;5044429;28;20037;-72
2021/08/11 07:25:45;;;;;;;7.60;4.10;;;21.00;64.60;;;;;;5039373;28;20043;-73
2021/08/11 07:28:12;;;;;;;7.75;3.60;;;21.00;64.60;;;;;;5052163;28;20025;-74
2021/08/11 07:30:38;;;;;;;6.22;3.35;;;21.00;64.60;;;;;;5049072;28;20029;-75
2021/08/11 07:33:07;;;;;;;7.85;3.80;;;21.00;64.60;;;;;;5054749;28;20028;-73
2021/08/11 07:35:33;;;;;;;7.07;3.80;;;21.00;64.60;;;;;;5036056;28;20041;-74
2021/08/11 07:38:01;;;;;;;6.40;3.67;;;21.00;64.70;;;;;;5047361;28;20048;-77
2021/08/11 07:40:27;;;;;;;7.55;3.22;;;21.10;64.70;;;;;;5048613;28;20543;-76
2021/08/11 07:42:54;;;;;;;7.40;3.67;;;21.10;64.70;;;;;;5050128;28;20025;-76
2021/08/11 07:45:21;;;;;;;8.32;3.53;;;21.10;64.70;;;;;;5034184;28;20028;-75
2021/08/11 07:47:51;;;;;;;6.68;3.80;;;21.10;64.60;;;;;;5042992;28;20091;-77
2021/08/11 07:50:17;;;;;;;7.03;3.53;;;21.10;64.70;;;;;;5054860;28;20108;-76
2021/08/11 07:52:43;;;;;;;8.45;4.07;;;21.10;64.70;;;;;;5047217;28;20529;-74
2021/08/11 07:55:09;;;;;;;7.65;3.78;;;21.10;64.70;;;;;;5031075;28;20100;-76
2021/08/11 07:57:34;;;;;;;6.57;3.60;;;21.10;64.70;;;;;;5049182;28;20049;-73
2021/08/11 08:00:00;;;;;;;8.30;3.67;;;21.10;64.60;;;;;;5047296;28;20056;-74
2021/08/11 08:02:26;;;;;;;6.93;3.38;;;21.10;64.70;;;;;;5045334;28;20500;-74
2021/08/11 08:04:51;;;;;;;7.28;3.63;;;21.10;64.70;;;;;;5031859;28;20036;-76
2021/08/11 08:07:17;;;;;;;6.97;3.58;;;21.10;64.70;;;;;;5038216;28;20053;-77
2021/08/11 08:09:42;;;;;;;10.70;4.32;;;21.10;64.70;;;;;;5054184;28;20063;-76
2021/08/11 08:12:08;;;;;;;6.82;3.47;;;21.20;64.70;;;;;;5042375;28;20090;-77
2021/08/11 08:14:34;;;;;;;7.53;3.83;;;21.20;64.60;;;;;;5021534;28;20043;-76
2021/08/11 08:16:59;;;;;;;6.97;4.18;;;21.20;64.70;;;;;;5041684;28;20112;-73
2021/08/11 08:19:25;;;;;;;6.88;3.33;;;21.20;64.70;;;;;;5066373;28;20055;-76
2021/08/11 08:21:53;;;;;;;7.72;3.97;;;21.20;64.70;;;;;;5039801;28;20064;-75
2021/08/11 08:24:19;;;;;;;7.80;3.83;;;21.30;64.60;;;;;;5029610;28;20433;-76
2021/08/11 08:26:45;;;;;;;7.55;3.60;;;21.20;64.70;;;;;;5035707;28;20123;-75
2021/08/11 08:29:10;;;;;;;8.10;4.00;;;21.20;64.70;;;;;;5039108;28;20021;-75
2021/08/11 08:31:36;;;;;;;8.10;3.85;;;21.20;64.70;;;;;;5042576;28;20037;-76
2021/08/11 08:34:02;;;;;;;7.82;4.10;;;21.30;64.70;;;;;;5040401;28;20286;-72
2021/08/11 08:36:27;;;;;;;6.90;3.58;;;21.30;64.70;;;;;;5043215;28;20378;-71
2021/08/11 08:38:53;;;;;;;7.80;4.03;;;21.30;64.70;;;;;;5049171;28;20108;-74
2021/08/11 08:41:18;;;;;;;7.70;4.00;;;21.30;64.60;;;;;;5047602;28;20033;-74
2021/08/11 08:43:46;;;;;;;7.10;3.35;;;21.40;64.60;;;;;;5041163;28;20021;-71
2021/08/11 08:46:15;;;;;;;9.95;4.53;;;21.30;64.60;;;;;;5038814;28;20388;-72
2021/08/11 08:48:41;;;;;;;8.23;4.45;;;21.40;64.60;;;;;;5037291;28;20105;-73
2021/08/11 08:51:11;;;;;;;8.35;4.38;;;21.40;64.60;;;;;;5035578;28;20614;-71
2021/08/11 08:53:38;;;;;;;6.43;3.75;;;21.50;64.60;;;;;;5043490;28;20029;-70
2021/08/11 08:56:05;;;;;;;7.05;4.05;;;21.50;64.60;;;;;;5034700;28;20025;-70
2021/08/11 08:58:32;;;;;;;8.95;4.07;;;21.50;64.60;;;;;;5034376;28;20028;-72
2021/08/11 09:00:57;;;;;;;7.18;3.83;;;21.50;64.50;;;;;;5046816;28;20025;-71
2021/08/11 09:03:23;;;;;;;6.53;3.78;;;21.50;64.40;;;;;;5041929;28;20071;-74
2021/08/11 09:05:48;;;;;;;7.55;4.20;;;21.50;64.50;;;;;;5042280;28;20549;-71
2021/08/11 09:08:14;;;;;;;9.07;4.20;;;21.50;64.50;;;;;;5062006;28;20028;-71
2021/08/11 09:10:41;;;;;;;9.32;4.28;;;21.50;64.40;;;;;;5035891;28;20116;-74
2021/08/11 09:13:23;;;;;;;7.75;3.63;;;21.50;64.50;;;;;;5049322;28;20208;-70
2021/08/11 09:15:54;;;;;;;8.05;3.80;;;21.50;64.40;;;;;;5021010;28;20053;-72
2021/08/11 09:18:19;;;;;;;7.10;3.78;;;21.50;64.30;;;;;;5031534;28;20029;-72
2021/08/11 09:20:58;;;;;;;10.32;3.80;;;21.60;64.30;;;;;;5035380;28;20087;-74
2021/08/11 09:23:37;;;;;;;8.60;4.32;;;21.50;64.30;;;;;;5025963;28;20486;-74
2021/08/11 09:26:12;;;;;;;6.90;3.83;;;21.50;64.50;;;;;;5029763;28;20557;-75
2021/08/11 09:28:38;;;;;;;;;;;21.50;64.40;;;;;;5036361;28;20358;-71
2021/08/11 09:31:30;;;;;;;7.05;3.95;;;21.60;64.50;;;;;;5031976;28;19948;-73
2021/08/11 09:33:58;;;;;;;9.73;3.78;;;21.60;64.40;;;;;;5023276;28;20029;-74
2021/08/11 09:36:24;;;;;;;8.15;3.97;;;21.70;64.70;;;;;;5044801;28;20139;-74
2021/08/11 09:38:59;;;;;;;8.98;4.45;;;21.70;64.60;;;;;;5049302;28;20025;-73
2021/08/11 09:41:25;;;;;;;8.27;4.40;;;21.70;64.50;;;;;;5050338;28;20411;-72
2021/08/11 09:44:18;;;;;;;7.55;4.05;;;21.70;64.70;;;;;;5030817;28;20029;-73
2021/08/11 09:46:43;;;;;;;8.40;4.07;;;21.80;64.80;;;;;;5046637;28;20037;-69
2021/08/11 09:49:20;;;;;;;7.90;3.90;;;21.80;64.80;;;;;;5050753;28;20021;-69
2021/08/11 09:51:57;;;;;;;7.32;3.97;;;21.80;64.60;;;;;;5045599;28;20156;-71
2021/08/11 09:54:23;;;;;;;6.65;3.60;;;21.90;64.60;;;;;;5043979;28;20022;-68
2021/08/11 09:56:48;;;;;;;7.38;3.67;;;21.90;64.60;;;;;;5058717;28;20024;-68
2021/08/11 09:59:14;;;;;;;7.20;4.00;;;21.90;64.70;;;;;;5054891;28;20480;-69
2021/08/11 10:01:39;;;;;;;6.95;3.67;;;22.00;64.70;;;;;;5056585;28;20108;-69
2021/08/11 10:04:07;;;;;;;7.20;3.83;;;21.90;64.80;;;;;;5036957;28;20025;-70
2021/08/11 10:06:41;;;;;;;7.47;3.95;;;22.00;64.50;;;;;;5040957;28;20048;-68
2021/08/11 10:09:24;;;;;;;7.35;3.85;;;22.00;64.50;;;;;;5049978;28;20036;-70
2021/08/11 10:11:51;;;;;;;7.20;3.80;;;22.00;64.60;;;;;;5045253;28;20040;-71
2021/08/11 10:14:21;;;;;;;7.47;4.05;;;22.00;64.60;;;;;;5044119;28;20126;-71
2021/08/11 10:16:47;;;;;;;7.65;3.72;;;21.90;64.50;;;;;;5059152;28;20104;-71
2021/08/11 10:19:13;;;;;;;7.80;4.70;;;22.00;64.60;;;;;;5055290;28;20021;-71
2021/08/11 10:21:47;;;;;;;7.20;4.10;;;22.00;64.50;;;;;;5061018;28;20025;-72
2021/08/11 10:24:13;;;;;;;7.20;3.95;;;22.00;64.30;;;;;;5055112;28;20029;-69
2021/08/11 10:26:40;;;;;;;8.23;4.50;;;22.00;64.30;;;;;;5054603;28;20033;-68
2021/08/11 10:29:06;;;;;;;7.13;4.15;;;22.00;64.20;;;;;;5048296;28;20013;-69
2021/08/11 10:31:34;;;;;;;7.97;3.92;;;22.00;64.30;;;;;;5040902;28;20029;-70
2021/08/11 10:34:01;;;;;;;9.02;4.20;;;22.00;64.20;;;;;;5049985;28;20057;-73
2021/08/11 10:36:29;;;;;;;9.98;3.88;;;22.00;64.10;;;;;;5049145;28;20057;-70
2021/08/11 10:38:56;;;;;;;7.05;3.75;;;22.00;64.10;;;;;;5046053;28;20028;-68
2021/08/11 10:41:31;;;;;;;7.60;4.32;;;22.00;64.20;;;;;;5041784;28;20413;-70
2021/08/11 10:43:58;;;;;;;9.48;4.03;;;22.10;64.20;;;;;;5049135;28;20107;-69
2021/08/11 10:46:36;;;;;;;7.38;3.85;;;22.10;64.20;;;;;;5053258;28;20045;-71
2021/08/11 10:49:05;;;;;;;11.80;3.83;;;22.00;64.30;;;;;;5041584;28;20105;-69
2021/08/11 10:51:39;;;;;;;6.63;4.00;;;22.00;64.20;;;;;;5045777;28;20482;-70
2021/08/11 10:54:06;;;;;;;7.97;3.90;;;22.10;64.30;;;;;;5053229;28;20032;-67
2021/08/11 10:57:01;;;;;;;9.88;4.60;;;22.10;64.30;;;;;;5051459;28;20033;-72
2021/08/11 10:59:31;;;;;;;6.93;4.22;;;22.20;64.40;;;;;;5038292;28;20101;-65
2021/08/11 11:01:58;;;;;;;6.72;3.92;;;22.20;64.20;;;;;;5049217;28;20037;-70
2021/08/11 11:04:43;;;;;;;7.88;4.20;;;22.20;64.30;;;;;;5048515;28;20050;-76
2021/08/11 11:07:09;;;;;;;6.65;4.05;;;22.30;64.60;;;;;;5051346;28;20037;-71
2021/08/11 11:09:35;;;;;;;6.88;3.80;;;22.30;64.60;;;;;;5046713;28;20495;-69
2021/08/11 11:12:16;;;;;;;9.98;4.25;;;22.30;64.30;;;;;;5053022;28;20024;-68
2021/08/11 11:15:00;;;;;;;9.20;4.47;;;22.30;64.60;;;;;;5056991;28;20025;-70
2021/08/11 11:17:29;;;;;;;8.90;4.20;;;22.40;64.50;;;;;;5067649;28;20032;-68
2021/08/11 11:20:08;;;;;;;6.78;3.85;;;22.40;64.50;;;;;;5045456;28;20366;-69
2021/08/11 11:22:50;;;;;;;8.63;4.30;;;22.40;64.50;;;;;;5051155;28;20036;-68
2021/08/11 11:25:17;;;;;;;7.32;3.85;;;22.40;64.50;;;;;;5044516;28;20385;-62
2021/08/11 11:27:53;;;;;;;8.73;4.35;;;22.50;64.40;;;;;;5050383;28;20017;-67
2021/08/11 11:30:27;;;;;;;8.13;4.22;;;22.50;64.50;;;;;;5052148;28;20358;-71
2021/08/11 11:32:53;;;;;;;6.80;4.00;;;22.50;64.40;;;;;;5046794;28;20067;-67
2021/08/11 11:35:24;;;;;;;7.50;3.65;;;22.50;64.40;;;;;;5042497;28;20053;-68
2021/08/11 11:38:10;;;;;;;8.43;4.43;;;22.50;64.50;;;;;;5049701;28;20056;-68
2021/08/11 11:40:54;;;;;;;6.65;4.15;;;22.50;64.50;;;;;;5044712;28;20392;-68
2021/08/11 11:43:31;;;;;;;7.88;4.13;;;22.50;64.40;;;;;;5047662;28;20025;-70
2021/08/11 11:45:58;;;;;;;6.47;3.55;;;22.50;64.50;;;;;;5053458;28;20037;-67
2021/08/11 11:48:24;;;;;;;6.82;3.50;;;22.60;64.50;;;;;;5047188;28;20381;-67
2021/08/11 11:51:01;;;;;;;10.00;3.97;;;22.50;64.50;;;;;;5049207;28;20531;-68
2021/08/11 11:53:29;;;;;;;8.15;3.85;;;22.50;64.60;;;;;;5047451;28;20473;-68
2021/08/11 11:55:55;;;;;;;6.38;3.38;;;22.60;64.50;;;;;;5045745;28;20076;-68
2021/08/11 11:58:26;;;;;;;6.68;3.83;;;22.60;64.50;;;;;;5040644;28;20040;-68
2021/08/11 12:01:04;;;;;;;6.30;3.58;;;22.60;64.60;;;;;;5033838;28;20025;-68
2021/08/11 12:03:42;;;;;;;6.40;3.45;;;22.70;64.30;;;;;;5045605;28;20083;-68
2021/08/11 12:06:09;;;;;;;7.82;4.10;;;22.70;64.40;;;;;;5049393;28;20107;-68
2021/08/11 12:08:34;;;;;;;9.35;5.07;;;22.80;64.20;;;;;;5044685;28;20508;-69
2021/08/11 12:11:09;;;;;;;9.80;4.18;;;22.80;64.30;;;;;;5052902;28;20033;-68
2021/08/11 12:13:38;;;;;;;6.45;3.88;;;22.90;64.20;;;;;;5051329;28;20108;-68
2021/08/11 12:16:04;;;;;;;5.57;3.35;;;22.90;64.10;;;;;;5051663;28;20488;-67
2021/08/11 12:18:30;;;;;;;7.03;3.80;;;22.90;64.00;;;;;;5052361;28;20033;-69
2021/08/11 12:21:01;;;;;;;8.02;4.20;;;23.10;64.00;;;;;;5051509;28;20029;-67
2021/08/11 12:23:29;;;;;;;7.10;4.00;;;23.00;63.80;;;;;;5052461;28;20075;-67
2021/08/11 12:26:00;;;;;;;7.85;4.50;;;22.90;62.90;;;;;;5052868;28;20033;-67
2021/08/11 12:28:37;;;;;;;8.52;4.65;;;23.00;62.90;;;;;;5052625;28;20052;-68
2021/08/11 12:31:22;;;;;;;6.55;4.53;;;23.00;61.80;;;;;;5049679;28;20027;-68
2021/08/11 12:33:50;;;;;;;7.65;4.40;;;23.10;60.10;;;;;;5038093;28;20128;-68
2021/08/11 12:36:21;;;;;;;7.18;4.43;;;23.10;59.60;;;;;;5052221;28;20049;-68
2021/08/11 12:39:05;;;;;;;7.78;4.75;;;23.00;60.30;;;;;;5051786;28;20502;-67
2021/08/11 12:41:38;;;;;;;7.73;5.20;;;23.10;58.20;;;;;;5052161;28;20025;-67
2021/08/11 12:44:15;;;;;;;10.25;4.90;;;23.40;57.10;;;;;;5052288;28;20484;-66
2021/08/11 12:46:47;;;;;;;9.15;5.38;;;23.30;56.80;;;;;;5052018;28;20086;-66
2021/08/11 12:49:24;;;;;;;7.05;4.60;;;23.20;57.90;;;;;;5052788;28;20032;-67
2021/08/11 12:52:23;;;;;;;8.38;4.85;;;23.10;58.00;;;;;;5052753;28;20552;-67
2021/08/11 12:55:00;;;;;;;8.68;5.32;;;23.20;57.70;;;;;;5045476;28;20037;-66